createdAt,value
2018-01-21T00:01:30.024Z,-0.50
2018-01-21T00:03:58.013Z,-0.50
2018-01-21T00:06:25.922Z,-0.40
2018-01-21T00:08:53.847Z,-0.50
2018-01-21T00:11:21.845Z,-0.60
2018-01-21T00:13:49.915Z,-0.60
2018-01-21T00:16:17.781Z,-0.60
2018-01-21T00:18:45.611Z,-0.60
2018-01-21T00:21:13.793Z,-0.50
2018-01-21T00:23:41.637Z,-0.50
2018-01-21T00:26:10.346Z,-0.40
2018-01-21T00:28:38.346Z,-0.40
2018-01-21T00:31:06.315Z,-0.40
2018-01-21T00:33:34.283Z,-0.40
2018-01-21T00:36:02.311Z,-0.40
2018-01-21T00:38:30.240Z,-0.40
2018-01-21T00:40:58.191Z,-0.30
2018-01-21T00:43:26.265Z,-0.40
2018-01-21T00:45:54.393Z,-0.40
2018-01-21T00:48:22.306Z,-0.40
2018-01-21T00:50:50.478Z,-0.40
2018-01-21T00:53:18.518Z,-0.40
2018-01-21T00:55:46.419Z,-0.40
2018-01-21T00:58:14.388Z,-0.40
2018-01-21T01:00:42.255Z,-0.40
2018-01-21T01:03:10.190Z,-0.40
2018-01-21T01:05:38.141Z,-0.40
2018-01-21T01:08:06.779Z,-0.30
2018-01-21T01:10:34.644Z,-0.40
2018-01-21T01:13:02.718Z,-0.30
2018-01-21T01:15:30.520Z,-0.30
2018-01-21T01:17:59.500Z,-0.20
2018-01-21T01:20:27.442Z,-0.20
2018-01-21T01:22:55.316Z,-0.20
2018-01-21T01:25:23.381Z,-0.20
2018-01-21T01:27:51.530Z,-0.20
2018-01-21T01:30:19.822Z,-0.20
2018-01-21T01:32:47.617Z,-0.10
2018-01-21T01:35:15.667Z,-0.20
2018-01-21T01:37:43.535Z,-0.10
2018-01-21T01:40:11.401Z,-0.20
2018-01-21T01:42:39.286Z,-0.20
2018-01-21T01:45:07.136Z,-0.20
2018-01-21T01:47:35.002Z,-0.20
2018-01-21T01:50:03.074Z,-0.20
2018-01-21T01:52:30.947Z,-0.20
2018-01-21T01:54:58.807Z,-0.10
2018-01-21T01:57:26.690Z,-0.20
2018-01-21T01:59:54.559Z,-0.20
2018-01-21T02:02:22.416Z,-0.10
2018-01-21T02:04:50.486Z,0.00
2018-01-21T02:07:18.448Z,0.00
2018-01-21T02:09:46.326Z,0.00
2018-01-21T02:12:14.286Z,0.10
2018-01-21T02:14:42.162Z,0.10
2018-01-21T02:17:10.026Z,0.20
2018-01-21T02:19:37.998Z,0.20
2018-01-21T02:22:05.863Z,0.30
2018-01-21T02:24:33.822Z,0.30
2018-01-21T02:27:02.846Z,0.30
2018-01-21T02:29:31.605Z,0.20
2018-01-21T02:31:59.386Z,0.20
2018-01-21T02:34:27.943Z,0.20
2018-01-21T02:36:55.821Z,0.20
2018-01-21T02:39:23.700Z,0.20
2018-01-21T02:41:51.564Z,0.10
2018-01-21T02:44:19.421Z,0.10
2018-01-21T02:46:47.339Z,0.00
2018-01-21T02:49:16.026Z,-0.20
2018-01-21T02:51:44.679Z,-0.30
2018-01-21T02:54:12.529Z,-0.30
2018-01-21T02:56:40.435Z,-0.40
2018-01-21T02:59:09.245Z,-0.40
2018-01-21T03:01:37.873Z,-0.40
2018-01-21T03:04:05.736Z,-0.30
2018-01-21T03:06:33.601Z,-0.30
2018-01-21T03:09:01.469Z,-0.40
2018-01-21T03:11:29.439Z,-0.50
2018-01-21T03:13:57.407Z,-0.50
2018-01-21T03:16:25.274Z,-0.60
2018-01-21T03:18:53.202Z,-0.60
2018-01-21T03:21:21.110Z,-0.70
2018-01-21T03:23:48.943Z,-0.70
2018-01-21T03:26:16.810Z,-0.70
2018-01-21T03:28:44.651Z,-0.80
2018-01-21T03:31:13.303Z,-0.70
2018-01-21T03:33:41.281Z,-0.70
2018-01-21T03:36:09.130Z,-0.80
2018-01-21T03:38:37.536Z,-0.80
2018-01-21T03:41:05.481Z,-0.70
2018-01-21T03:43:33.458Z,-0.60
2018-01-21T03:46:01.322Z,-0.50
2018-01-21T03:48:29.284Z,-0.40
2018-01-21T03:50:57.150Z,-0.20
2018-01-21T03:53:25.028Z,-0.10
2018-01-21T03:55:53.030Z,0.00
2018-01-21T03:58:21.683Z,0.10
2018-01-21T04:00:49.443Z,0.10
2018-01-21T04:03:17.406Z,0.10
2018-01-21T04:05:45.487Z,0.10
2018-01-21T04:08:13.295Z,0.10
2018-01-21T04:10:42.034Z,0.00
2018-01-21T04:13:10.012Z,0.00
2018-01-21T04:15:38.082Z,0.00
2018-01-21T04:18:06.462Z,-0.10
2018-01-21T04:20:34.422Z,-0.20
2018-01-21T04:23:02.502Z,-0.30
2018-01-21T04:25:30.359Z,-0.40
2018-01-21T04:27:58.143Z,-0.40
2018-01-21T04:30:26.811Z,-0.40
2018-01-21T04:32:54.677Z,-0.40
2018-01-21T04:35:22.853Z,-0.40
2018-01-21T04:37:50.925Z,-0.30
2018-01-21T04:40:18.791Z,-0.40
2018-01-21T04:42:46.711Z,-0.40
2018-01-21T04:45:15.444Z,-0.40
2018-01-21T04:47:43.415Z,-0.40
2018-01-21T04:50:11.280Z,-0.40
2018-01-21T04:52:39.201Z,-0.40
2018-01-21T04:55:07.974Z,-0.50
2018-01-21T04:57:36.506Z,-0.50
2018-01-21T05:00:04.323Z,-0.50
2018-01-21T05:02:32.911Z,-0.60
2018-01-21T05:05:01.557Z,-0.50
2018-01-21T05:07:29.421Z,-0.50
2018-01-21T05:09:57.334Z,-0.50
2018-01-21T05:12:25.975Z,-0.50
2018-01-21T05:14:53.789Z,-0.50
2018-01-21T05:17:22.426Z,-0.30
2018-01-21T05:19:50.303Z,-0.30
2018-01-21T05:22:18.160Z,-0.30
2018-01-21T05:24:46.033Z,-0.20
2018-01-21T05:27:14.000Z,-0.20
2018-01-21T05:29:42.069Z,-0.20
2018-01-21T05:32:10.045Z,-0.30
2018-01-21T05:34:37.913Z,-0.30
2018-01-21T05:37:05.778Z,-0.40
2018-01-21T05:39:33.740Z,-0.40
2018-01-21T05:42:01.607Z,-0.40
2018-01-21T05:44:29.475Z,-0.40
2018-01-21T05:46:57.353Z,-0.40
2018-01-21T05:49:25.629Z,-0.40
2018-01-21T05:51:53.526Z,-0.40
2018-01-21T05:54:22.285Z,-0.50
2018-01-21T05:56:50.138Z,-0.50
2018-01-21T05:59:18.006Z,-0.50
2018-01-21T06:01:46.197Z,-0.50
2018-01-21T06:04:14.046Z,-0.40
2018-01-21T06:06:42.015Z,-0.40
2018-01-21T06:09:09.882Z,-0.40
2018-01-21T06:11:37.760Z,-0.50
2018-01-21T06:14:05.820Z,-0.40
2018-01-21T06:16:33.696Z,-0.30
2018-01-21T06:19:01.666Z,-0.30
2018-01-21T06:21:29.524Z,-0.30
2018-01-21T06:23:57.614Z,-0.30
2018-01-21T06:26:25.462Z,-0.30
2018-01-21T06:28:53.228Z,-0.30
2018-01-21T06:31:21.150Z,-0.30
2018-01-21T06:33:49.073Z,-0.40
2018-01-21T06:36:16.903Z,-0.40
2018-01-21T06:38:44.970Z,-0.40
2018-01-21T06:41:12.766Z,-0.30
2018-01-21T06:43:40.644Z,-0.30
2018-01-21T06:46:08.614Z,-0.30
2018-01-21T06:48:36.573Z,-0.30
2018-01-21T06:51:05.105Z,-0.30
2018-01-21T06:53:33.204Z,-0.30
2018-01-21T06:56:01.122Z,-0.20
2018-01-21T06:58:28.906Z,-0.20
2018-01-21T07:00:56.987Z,-0.10
2018-01-21T07:03:25.518Z,0.00
2018-01-21T07:05:53.338Z,-0.10
2018-01-21T07:08:21.210Z,0.00
2018-01-21T07:10:49.071Z,-0.10
2018-01-21T07:13:16.827Z,0.00
2018-01-21T07:15:44.721Z,0.00
2018-01-21T07:18:12.459Z,0.00
2018-01-21T07:20:40.932Z,0.10
2018-01-21T07:23:10.081Z,0.10
2018-01-21T07:25:38.113Z,0.10
2018-01-21T07:28:06.749Z,0.20
2018-01-21T07:30:34.578Z,0.20
2018-01-21T07:33:02.580Z,0.20
2018-01-21T07:35:30.755Z,0.20
2018-01-21T07:37:58.751Z,0.20
2018-01-21T07:40:27.736Z,0.20
2018-01-21T07:42:55.486Z,0.30
2018-01-21T07:45:23.382Z,0.40
2018-01-21T07:47:53.084Z,0.50
2018-01-21T07:50:21.854Z,0.40
2018-01-21T07:52:51.521Z,0.40
2018-01-21T07:55:21.913Z,0.20
2018-01-21T07:57:50.159Z,0.20
2018-01-21T08:00:20.562Z,0.20
2018-01-21T08:02:49.252Z,0.30
2018-01-21T08:05:19.619Z,0.30
2018-01-21T08:07:48.190Z,0.70
2018-01-21T08:10:16.611Z,0.60
2018-01-21T08:12:50.465Z,0.80
2018-01-21T08:15:19.293Z,0.90
2018-01-21T08:17:50.153Z,1.00
2018-01-21T08:20:19.408Z,1.00
2018-01-21T08:22:47.234Z,1.10
2018-01-21T08:25:14.999Z,1.20
2018-01-21T08:27:44.948Z,1.30
2018-01-21T08:30:14.035Z,1.40
2018-01-21T08:32:46.335Z,1.40
2018-01-21T08:35:20.113Z,1.50
2018-01-21T08:37:54.979Z,1.60
2018-01-21T08:40:28.646Z,1.70
2018-01-21T08:42:56.772Z,1.80
2018-01-21T08:45:25.614Z,1.90
2018-01-21T08:47:54.153Z,2.00
2018-01-21T08:50:22.172Z,2.00
2018-01-21T08:52:50.611Z,2.10
2018-01-21T08:55:19.210Z,2.10
2018-01-21T08:57:46.984Z,2.20
2018-01-21T09:00:14.999Z,2.20
2018-01-21T09:02:43.619Z,2.30
2018-01-21T09:05:11.558Z,2.30
2018-01-21T09:07:40.562Z,2.50
2018-01-21T09:10:08.561Z,2.50
2018-01-21T09:12:36.475Z,2.60
2018-01-21T09:15:04.313Z,2.60
2018-01-21T09:17:32.220Z,2.80
2018-01-21T09:20:00.892Z,3.10
2018-01-21T09:22:28.782Z,3.10
2018-01-21T09:25:02.561Z,3.20
2018-01-21T09:27:30.360Z,3.40
2018-01-21T09:29:58.890Z,3.60
2018-01-21T09:32:26.657Z,3.60
2018-01-21T09:34:54.494Z,3.70
2018-01-21T09:37:22.231Z,3.80
2018-01-21T09:39:50.151Z,3.90
2018-01-21T09:42:18.029Z,4.00
2018-01-21T09:44:45.818Z,4.20
2018-01-21T09:47:14.373Z,4.50
2018-01-21T09:49:42.233Z,4.40
2018-01-21T09:52:10.047Z,4.50
2018-01-21T09:54:38.683Z,5.00
2018-01-21T09:57:06.452Z,4.90
2018-01-21T09:59:34.376Z,5.10
2018-01-21T10:02:02.489Z,5.20
2018-01-21T10:04:30.356Z,5.30
2018-01-21T10:06:58.372Z,5.40
2018-01-21T10:09:27.078Z,5.70
2018-01-21T10:11:55.083Z,5.70
2018-01-21T10:14:23.053Z,5.80
2018-01-21T10:16:51.021Z,5.80
2018-01-21T10:19:19.085Z,5.70
2018-01-21T10:21:47.165Z,5.60
2018-01-21T10:24:15.031Z,5.30
2018-01-21T10:26:43.001Z,5.10
2018-01-21T10:29:10.878Z,4.90
2018-01-21T10:31:38.604Z,5.00
2018-01-21T10:34:06.323Z,5.00
2018-01-21T10:36:34.091Z,4.90
2018-01-21T10:39:01.872Z,4.90
2018-01-21T10:41:30.382Z,4.90
2018-01-21T10:43:58.123Z,4.90
2018-01-21T10:46:26.723Z,5.30
2018-01-21T10:48:54.467Z,5.30
2018-01-21T10:51:22.975Z,5.70
2018-01-21T10:53:50.784Z,5.70
2018-01-21T10:56:18.534Z,6.00
2018-01-21T10:58:46.383Z,6.30
2018-01-21T11:01:14.191Z,6.40
2018-01-21T11:03:42.026Z,6.50
2018-01-21T11:06:09.761Z,6.70
2018-01-21T11:08:37.502Z,6.90
2018-01-21T11:11:06.047Z,7.50
2018-01-21T11:13:33.748Z,7.50
2018-01-21T11:16:02.288Z,7.60
2018-01-21T11:18:30.049Z,7.60
2018-01-21T11:20:58.545Z,7.80
2018-01-21T11:23:26.285Z,7.80
2018-01-21T11:25:54.055Z,7.90
2018-01-21T11:28:21.824Z,8.00
2018-01-21T11:30:49.676Z,8.00
2018-01-21T11:33:17.471Z,8.20
2018-01-21T11:35:45.215Z,8.40
2018-01-21T11:38:13.007Z,8.60
2018-01-21T11:40:41.511Z,8.70
2018-01-21T11:43:10.114Z,8.80
2018-01-21T11:45:37.868Z,8.80
2018-01-21T11:48:05.632Z,8.70
2018-01-21T11:50:34.256Z,8.80
2018-01-21T11:53:02.078Z,8.80
2018-01-21T11:55:29.840Z,8.90
2018-01-21T11:57:59.516Z,8.90
2018-01-21T12:00:27.252Z,8.90
2018-01-21T12:02:54.990Z,8.90
2018-01-21T12:05:22.763Z,8.70
2018-01-21T12:07:50.593Z,8.40
2018-01-21T12:10:18.451Z,8.30
2018-01-21T12:12:46.147Z,8.60
2018-01-21T12:15:13.922Z,8.90
2018-01-21T12:17:41.783Z,9.10
2018-01-21T12:20:09.790Z,9.10
2018-01-21T12:22:37.659Z,9.20
2018-01-21T12:25:05.406Z,9.30
2018-01-21T12:27:33.169Z,9.50
2018-01-21T12:30:00.933Z,9.70
2018-01-21T12:32:28.693Z,9.90
2018-01-21T12:34:56.589Z,10.00
2018-01-21T12:37:24.492Z,10.10
2018-01-21T12:39:53.082Z,10.30
2018-01-21T12:42:21.647Z,10.40
2018-01-21T12:44:49.439Z,10.40
2018-01-21T12:47:17.990Z,10.20
2018-01-21T12:49:45.881Z,10.20
2018-01-21T12:52:14.571Z,10.20
2018-01-21T12:54:43.104Z,10.20
2018-01-21T12:57:10.881Z,10.30
2018-01-21T12:59:38.752Z,10.30
2018-01-21T13:02:06.539Z,10.00
2018-01-21T13:04:35.088Z,9.60
2018-01-21T13:07:02.944Z,9.60
2018-01-21T13:09:30.763Z,9.50
2018-01-21T13:11:59.308Z,9.00
2018-01-21T13:14:27.020Z,9.00
2018-01-21T13:16:54.837Z,8.80
2018-01-21T13:19:22.614Z,8.60
2018-01-21T13:21:50.479Z,8.40
2018-01-21T13:24:18.273Z,8.30
2018-01-21T13:26:46.127Z,8.30
2018-01-21T13:29:14.627Z,7.90
2018-01-21T13:31:42.442Z,7.90
2018-01-21T13:34:10.231Z,7.70
2018-01-21T13:36:38.176Z,7.50
2018-01-21T13:39:06.055Z,7.30
2018-01-21T13:41:33.851Z,7.10
2018-01-21T13:44:01.638Z,7.10
2018-01-21T13:46:29.531Z,7.10
2018-01-21T13:48:57.395Z,7.10
2018-01-21T13:51:25.320Z,7.20
2018-01-21T13:53:53.929Z,7.20
2018-01-21T13:56:21.661Z,7.20
2018-01-21T13:58:50.229Z,7.00
2018-01-21T14:01:18.104Z,7.00
2018-01-21T14:03:46.688Z,6.80
2018-01-21T14:06:15.231Z,6.90
2018-01-21T14:08:42.991Z,6.80
2018-01-21T14:11:10.722Z,6.80
2018-01-21T14:13:38.536Z,6.70
2018-01-21T14:16:06.244Z,6.40
2018-01-21T14:18:34.729Z,6.30
2018-01-21T14:21:02.549Z,6.30
2018-01-21T14:23:31.320Z,6.30
2018-01-21T14:25:59.173Z,6.10
2018-01-21T14:28:26.916Z,6.00
2018-01-21T14:30:54.737Z,5.90
2018-01-21T14:33:22.595Z,5.80
2018-01-21T14:35:50.491Z,5.70
2018-01-21T14:38:19.445Z,5.60
2018-01-21T14:40:47.426Z,5.60
2018-01-21T14:43:15.470Z,5.60
2018-01-21T14:45:43.359Z,5.50
2018-01-21T14:48:11.224Z,5.30
2018-01-21T14:50:39.216Z,5.20
2018-01-21T14:53:07.122Z,5.10
2018-01-21T14:55:36.200Z,4.90
2018-01-21T14:58:08.415Z,4.90
2018-01-21T15:00:36.840Z,4.90
2018-01-21T15:03:04.686Z,4.70
2018-01-21T15:05:32.579Z,4.60
2018-01-21T15:08:00.467Z,4.70
2018-01-21T15:10:29.152Z,4.90
2018-01-21T15:12:58.020Z,4.90
2018-01-21T15:15:25.870Z,4.90
2018-01-21T15:17:53.764Z,5.00
2018-01-21T15:20:22.906Z,4.90
2018-01-21T15:22:51.589Z,4.70
2018-01-21T15:25:19.488Z,4.70
2018-01-21T15:27:47.452Z,4.60
2018-01-21T15:30:15.427Z,4.50
2018-01-21T15:32:43.287Z,4.50
2018-01-21T15:35:11.161Z,4.30
2018-01-21T15:37:39.194Z,4.30
2018-01-21T15:40:07.092Z,4.20
2018-01-21T15:42:35.049Z,4.20
2018-01-21T15:45:03.106Z,4.20
2018-01-21T15:47:31.114Z,4.20
2018-01-21T15:50:00.854Z,4.20
2018-01-21T15:52:32.656Z,4.10
2018-01-21T15:55:02.533Z,4.00
2018-01-21T15:57:31.178Z,3.90
2018-01-21T16:00:00.764Z,3.90
2018-01-21T16:02:28.696Z,3.90
2018-01-21T16:04:57.198Z,3.80
2018-01-21T16:07:27.040Z,3.80
2018-01-21T16:09:55.127Z,3.80
2018-01-21T16:12:24.786Z,3.80
2018-01-21T16:14:53.118Z,3.80
2018-01-21T16:17:23.916Z,3.70
2018-01-21T16:19:52.748Z,3.70
2018-01-21T16:22:23.896Z,3.60
2018-01-21T16:24:55.616Z,3.50
2018-01-21T16:27:23.716Z,3.50
2018-01-21T16:29:52.679Z,3.50
2018-01-21T16:32:20.906Z,3.50
2018-01-21T16:34:51.222Z,3.30
2018-01-21T16:37:32.057Z,3.30
2018-01-21T16:40:04.089Z,3.30
2018-01-21T16:42:33.915Z,3.30
2018-01-21T16:45:03.686Z,3.30
2018-01-21T16:47:31.966Z,3.30
2018-01-21T16:50:04.274Z,3.00
2018-01-21T16:52:36.628Z,2.90
2018-01-21T16:55:06.305Z,2.90
2018-01-21T16:57:34.955Z,2.80
2018-01-21T17:00:04.262Z,2.70
2018-01-21T17:02:34.145Z,2.60
2018-01-21T17:05:02.755Z,2.60
2018-01-21T17:07:31.900Z,2.60
2018-01-21T17:10:00.742Z,2.60
2018-01-21T17:12:30.542Z,2.50
2018-01-21T17:14:59.263Z,2.50
2018-01-21T17:17:30.717Z,2.40
2018-01-21T17:20:00.679Z,2.40
2018-01-21T17:22:31.302Z,2.30
2018-01-21T17:25:01.708Z,2.30
2018-01-21T17:27:32.955Z,2.30
2018-01-21T17:30:01.193Z,2.30
2018-01-21T17:32:29.266Z,2.20
2018-01-21T17:35:01.205Z,2.20
2018-01-21T17:37:31.771Z,2.10
2018-01-21T17:40:00.293Z,2.10
2018-01-21T17:42:28.409Z,2.10
2018-01-21T17:44:59.228Z,2.10
2018-01-21T17:47:28.561Z,2.00
2018-01-21T17:49:56.838Z,2.00
2018-01-21T17:52:27.408Z,2.00
2018-01-21T17:54:56.833Z,1.90
2018-01-21T17:57:31.113Z,2.00
2018-01-21T17:59:59.671Z,1.90
2018-01-21T18:02:30.998Z,1.80
2018-01-21T18:04:59.432Z,1.80
2018-01-21T18:07:27.285Z,1.80
2018-01-21T18:09:55.890Z,1.80
2018-01-21T18:12:27.096Z,1.70
2018-01-21T18:14:57.822Z,1.70
2018-01-21T18:17:26.256Z,1.70
2018-01-21T18:19:56.219Z,1.70
2018-01-21T18:22:26.852Z,1.60
2018-01-21T18:24:57.498Z,1.60
2018-01-21T18:27:30.073Z,1.60
2018-01-21T18:30:02.058Z,1.50
2018-01-21T18:32:37.272Z,1.50
2018-01-21T18:35:09.635Z,1.50
2018-01-21T18:37:38.496Z,1.50
2018-01-21T18:40:07.455Z,1.40
2018-01-21T18:42:41.862Z,1.50
2018-01-21T18:45:14.762Z,1.40
2018-01-21T18:47:44.866Z,1.40
2018-01-21T18:50:12.962Z,1.30
2018-01-21T18:52:40.829Z,1.30
2018-01-21T18:55:08.628Z,1.20
2018-01-21T18:57:37.274Z,1.00
2018-01-21T19:00:05.880Z,0.90
2018-01-21T19:02:33.694Z,0.90
2018-01-21T19:05:01.498Z,1.00
2018-01-21T19:07:29.329Z,1.10
2018-01-21T19:09:57.266Z,1.00
2018-01-21T19:12:25.930Z,0.80
2018-01-21T19:14:53.852Z,0.80
2018-01-21T19:17:22.188Z,0.80
2018-01-21T19:19:50.305Z,0.70
2018-01-21T19:22:19.240Z,0.60
2018-01-21T19:24:47.204Z,0.60
2018-01-21T19:27:15.379Z,0.50
2018-01-21T19:29:44.348Z,0.40
2018-01-21T19:32:12.750Z,0.30
2018-01-21T19:34:44.645Z,0.30
2018-01-21T19:37:13.208Z,0.20
2018-01-21T19:42:57.839Z,0.10
2018-01-21T19:45:26.061Z,0.10
2018-01-21T19:47:53.938Z,0.10
2018-01-21T19:50:22.071Z,0.20
2018-01-21T19:52:49.949Z,0.20
2018-01-21T19:55:18.137Z,0.20
2018-01-21T19:57:46.583Z,0.20
2018-01-21T20:00:15.419Z,0.10
2018-01-21T20:02:43.480Z,0.00
2018-01-21T20:05:12.725Z,-0.30
2018-01-21T20:07:42.455Z,-0.30
2018-01-21T20:10:10.353Z,-0.30
2018-01-21T20:12:42.021Z,-0.40
2018-01-21T20:15:10.084Z,-0.40
2018-01-21T20:17:37.892Z,-0.40
2018-01-21T20:20:08.031Z,-0.50
2018-01-21T20:22:35.935Z,-0.50
2018-01-21T20:25:03.755Z,-0.50
2018-01-21T20:27:31.754Z,-0.50
2018-01-21T20:29:59.694Z,-0.60
2018-01-21T20:32:27.502Z,-0.60
2018-01-21T20:34:55.403Z,-0.60
2018-01-21T20:37:24.058Z,-0.70
2018-01-21T20:39:51.982Z,-0.70
2018-01-21T20:42:25.546Z,-0.70
2018-01-21T20:44:53.416Z,-0.80
2018-01-21T20:47:21.274Z,-0.80
2018-01-21T20:49:49.141Z,-0.80
2018-01-21T20:52:22.682Z,-0.90
2018-01-21T20:54:51.703Z,-0.90
2018-01-21T20:57:19.694Z,-0.90
2018-01-21T20:59:47.535Z,-0.80
2018-01-21T21:02:15.452Z,-0.80
2018-01-21T21:04:44.100Z,-0.80
2018-01-21T21:07:12.138Z,-0.80
2018-01-21T21:09:39.927Z,-0.80
2018-01-21T21:12:07.710Z,-0.80
2018-01-21T21:14:35.580Z,-0.80
2018-01-21T21:17:03.557Z,-0.80
2018-01-21T21:19:31.503Z,-0.80
2018-01-21T21:21:59.416Z,-0.90
2018-01-21T21:24:28.064Z,-1.00
2018-01-21T21:26:56.067Z,-1.00
2018-01-21T21:29:24.189Z,-1.00
2018-01-21T21:31:52.047Z,-1.10
2018-01-21T21:34:19.878Z,-1.10
2018-01-21T21:36:48.525Z,-1.20
2018-01-21T21:39:16.388Z,-1.30
2018-01-21T21:41:44.258Z,-1.30
2018-01-21T21:44:12.078Z,-1.30
2018-01-21T21:46:40.714Z,-1.30
2018-01-21T21:49:08.584Z,-1.30
2018-01-21T21:51:36.648Z,-1.30
2018-01-21T21:54:04.519Z,-1.30
2018-01-21T21:56:32.381Z,-1.40
2018-01-21T21:59:00.356Z,-1.50
2018-01-21T22:01:28.520Z,-1.50
2018-01-21T22:03:56.612Z,-1.50
2018-01-21T22:06:24.575Z,-1.50
2018-01-21T22:08:52.545Z,-1.50
2018-01-21T22:11:20.417Z,-1.50
2018-01-21T22:13:48.474Z,-1.50
2018-01-21T22:16:16.363Z,-1.50
2018-01-21T22:18:44.146Z,-1.50
2018-01-21T22:21:12.084Z,-1.60
2018-01-21T22:23:39.942Z,-1.60
2018-01-21T22:26:07.709Z,-1.60
2018-01-21T22:28:35.856Z,-1.60
2018-01-21T22:31:03.862Z,-1.50
2018-01-21T22:33:31.670Z,-1.60
2018-01-21T22:35:59.800Z,-1.60
2018-01-21T22:38:27.662Z,-1.70
2018-01-21T22:40:55.500Z,-1.60
2018-01-21T22:43:23.720Z,-1.60
2018-01-21T22:45:51.580Z,-1.60
2018-01-21T22:48:19.535Z,-1.60
2018-01-21T22:50:47.424Z,-1.60
2018-01-21T22:53:15.506Z,-1.60
2018-01-21T22:55:43.297Z,-1.70
2018-01-21T22:58:11.168Z,-1.70
2018-01-21T23:00:39.139Z,-1.80
2018-01-21T23:03:07.984Z,-1.90
2018-01-21T23:05:35.830Z,-1.90
2018-01-21T23:08:03.699Z,-2.00
2018-01-21T23:10:31.602Z,-2.00
2018-01-21T23:13:00.239Z,-2.00
2018-01-21T23:15:28.019Z,-2.00
2018-01-21T23:17:55.891Z,-2.10
2018-01-21T23:20:35.557Z,-2.10
2018-01-21T23:23:03.311Z,-2.00
2018-01-21T23:25:31.979Z,-2.20
2018-01-21T23:27:59.907Z,-2.20
2018-01-21T23:30:27.814Z,-2.20
2018-01-21T23:32:55.753Z,-2.40
2018-01-21T23:35:23.660Z,-2.40
2018-01-21T23:37:51.619Z,-2.50
2018-01-21T23:40:19.500Z,-2.50
2018-01-21T23:42:47.561Z,-2.50
2018-01-21T23:45:15.530Z,-2.50
2018-01-21T23:47:43.396Z,-2.60
2018-01-21T23:50:11.469Z,-2.60
2018-01-21T23:52:39.475Z,-2.60
2018-01-21T23:55:08.140Z,-2.50
2018-01-21T23:57:36.089Z,-2.50
